createdAt,value
2022-09-20T00:01:24.474Z,7.78
2022-09-20T00:03:54.855Z,7.74
2022-09-20T00:06:25.912Z,7.81
2022-09-20T00:08:54.306Z,7.74
2022-09-20T00:11:24.690Z,7.75
2022-09-20T00:13:56.099Z,7.81
2022-09-20T00:16:28.374Z,7.83
2022-09-20T00:18:58.292Z,7.81
2022-09-20T00:21:29.045Z,7.78
2022-09-20T00:23:58.315Z,7.79
2022-09-20T00:26:27.193Z,7.87
2022-09-20T00:29:19.177Z,7.90
2022-09-20T00:31:48.403Z,7.84
2022-09-20T00:34:34.096Z,7.86
2022-09-20T00:37:02.189Z,7.91
2022-09-20T00:39:31.482Z,7.85
2022-09-20T00:41:59.129Z,7.78
2022-09-20T00:44:48.761Z,7.80
2022-09-20T00:47:28.111Z,7.81
2022-09-20T00:50:03.948Z,7.94
2022-09-20T00:52:32.565Z,7.88
2022-09-20T00:55:01.875Z,7.98
2022-09-20T00:57:35.211Z,7.96
2022-09-20T01:00:08.115Z,7.96
2022-09-20T01:02:40.885Z,7.95
2022-09-20T01:05:11.120Z,8.05
2022-09-20T01:07:40.050Z,8.06
2022-09-20T01:10:08.216Z,8.03
2022-09-20T01:12:40.289Z,8.07
2022-09-20T01:15:10.434Z,8.06
2022-09-20T01:17:43.875Z,8.10
2022-09-20T01:20:19.604Z,7.99
2022-09-20T01:23:20.089Z,8.08
2022-09-20T01:26:12.493Z,8.10
2022-09-20T01:28:44.648Z,8.08
2022-09-20T01:31:18.426Z,8.14
2022-09-20T01:33:53.011Z,8.21
2022-09-20T01:36:26.364Z,8.22
2022-09-20T01:39:06.801Z,8.16
2022-09-20T01:41:38.665Z,8.06
2022-09-20T01:44:13.828Z,8.12
2022-09-20T01:46:44.436Z,8.03
2022-09-20T01:49:24.816Z,8.09
2022-09-20T01:52:34.385Z,8.06
2022-09-20T01:55:38.173Z,8.11
2022-09-20T01:58:35.740Z,8.04
2022-09-20T02:01:31.274Z,8.03
2022-09-20T02:04:31.943Z,8.02
2022-09-20T02:07:23.948Z,7.98
2022-09-20T02:10:12.720Z,7.93
2022-09-20T02:12:54.096Z,7.99
2022-09-20T02:15:46.576Z,7.89
2022-09-20T02:18:21.994Z,8.00
2022-09-20T02:20:57.820Z,7.96
2022-09-20T02:23:41.519Z,7.95
2022-09-20T02:26:24.023Z,8.00
2022-09-20T02:29:03.313Z,7.87
2022-09-20T02:31:50.678Z,7.96
2022-09-20T02:34:44.260Z,7.97
2022-09-20T02:37:32.113Z,8.03
2022-09-20T02:40:19.920Z,7.96
2022-09-20T02:42:56.152Z,7.94
2022-09-20T02:45:31.101Z,7.98
2022-09-20T02:48:04.156Z,8.02
2022-09-20T02:50:42.734Z,7.99
2022-09-20T02:53:26.606Z,7.92
2022-09-20T02:56:04.304Z,7.91
2022-09-20T02:58:42.104Z,7.97
2022-09-20T03:01:21.218Z,7.91
2022-09-20T03:04:00.750Z,7.87
2022-09-20T03:06:38.257Z,7.83
2022-09-20T03:09:17.335Z,7.95
2022-09-20T03:12:01.956Z,7.92
2022-09-20T03:14:37.548Z,7.97
2022-09-20T03:17:16.981Z,7.94
2022-09-20T03:19:56.940Z,7.93
2022-09-20T03:22:38.352Z,8.00
2022-09-20T03:25:28.867Z,7.91
2022-09-20T03:28:10.894Z,7.91
2022-09-20T03:30:54.273Z,7.93
2022-09-20T03:33:32.769Z,7.88
2022-09-20T03:36:12.946Z,7.97
2022-09-20T03:39:01.034Z,7.99
2022-09-20T03:41:58.312Z,7.95
2022-09-20T03:44:42.411Z,7.97
2022-09-20T03:47:21.364Z,7.85
2022-09-20T03:50:18.794Z,7.96
2022-09-20T03:53:06.153Z,7.94
2022-09-20T03:56:11.248Z,7.96
2022-09-20T03:58:58.272Z,7.97
2022-09-20T04:01:50.201Z,8.03
2022-09-20T04:04:26.641Z,7.97
2022-09-20T04:07:11.800Z,7.96
2022-09-20T04:09:54.104Z,8.02
2022-09-20T04:12:31.684Z,7.94
2022-09-20T04:15:11.188Z,7.95
2022-09-20T04:17:48.621Z,7.87
2022-09-20T04:20:21.149Z,7.96
2022-09-20T04:22:52.265Z,7.97
2022-09-20T04:25:24.624Z,7.97
2022-09-20T04:27:58.173Z,7.94
2022-09-20T04:30:29.508Z,7.95
2022-09-20T04:33:01.408Z,7.99
2022-09-20T04:35:59.496Z,7.87
2022-09-20T04:38:28.206Z,8.07
2022-09-20T04:41:20.552Z,7.96
2022-09-20T04:44:12.006Z,7.95
2022-09-20T04:47:13.335Z,8.00
2022-09-20T04:50:16.795Z,7.97
2022-09-20T04:53:09.085Z,7.96
2022-09-20T04:55:52.825Z,8.01
2022-09-20T04:58:49.573Z,8.07
2022-09-20T05:02:03.348Z,8.02
2022-09-20T05:05:09.159Z,7.92
2022-09-20T05:08:05.980Z,7.97
2022-09-20T05:11:06.539Z,8.02
2022-09-20T05:13:47.469Z,8.04
2022-09-20T05:16:23.148Z,7.99
2022-09-20T05:19:26.878Z,7.97
2022-09-20T05:22:32.601Z,7.96
2022-09-20T05:25:35.172Z,7.99
2022-09-20T05:28:09.156Z,8.02
2022-09-20T05:30:44.716Z,8.04
2022-09-20T05:33:21.395Z,8.13
2022-09-20T05:36:03.237Z,8.09
2022-09-20T05:38:42.153Z,8.03
2022-09-20T05:41:18.903Z,8.04
2022-09-20T05:43:55.992Z,8.05
2022-09-20T05:46:35.766Z,8.07
2022-09-20T05:49:13.161Z,8.09
2022-09-20T05:52:00.937Z,8.12
2022-09-20T05:55:07.737Z,8.02
2022-09-20T05:57:56.400Z,8.03
2022-09-20T06:00:29.073Z,8.06
2022-09-20T06:03:10.374Z,8.09
2022-09-20T06:05:48.041Z,8.05
2022-09-20T06:08:43.202Z,8.22
2022-09-20T06:11:48.494Z,8.26
2022-09-20T06:14:27.526Z,8.13
2022-09-20T06:17:03.058Z,8.16
2022-09-20T06:19:40.241Z,8.21
2022-09-20T06:22:17.089Z,8.17
2022-09-20T06:24:51.096Z,8.22
2022-09-20T06:27:22.678Z,8.25
2022-09-20T06:29:55.790Z,8.26
2022-09-20T06:32:23.612Z,8.31
2022-09-20T06:34:52.860Z,8.28
2022-09-20T06:37:52.763Z,8.25
2022-09-20T06:40:50.920Z,8.30
2022-09-20T06:43:19.477Z,8.15
2022-09-20T06:45:48.054Z,8.34
2022-09-20T06:48:16.192Z,8.29
2022-09-20T06:50:45.281Z,8.39
2022-09-20T06:53:18.639Z,8.39
2022-09-20T06:55:48.685Z,8.39
2022-09-20T06:58:16.717Z,8.56
2022-09-20T07:00:44.538Z,8.66
2022-09-20T07:03:13.553Z,8.41
2022-09-20T07:05:41.836Z,8.55
2022-09-20T07:08:09.797Z,8.66
2022-09-20T07:10:38.343Z,8.72
2022-09-20T07:13:07.705Z,8.72
2022-09-20T07:15:35.593Z,8.77
2022-09-20T07:18:03.550Z,8.71
2022-09-20T07:20:31.605Z,8.83
2022-09-20T07:22:59.416Z,8.79
2022-09-20T07:25:27.528Z,8.83
2022-09-20T07:27:56.230Z,8.77
2022-09-20T07:30:25.888Z,8.84
2022-09-20T07:32:53.956Z,8.74
2022-09-20T07:35:22.325Z,8.78
2022-09-20T07:37:50.065Z,8.92
2022-09-20T07:40:20.224Z,8.92
2022-09-20T07:42:48.261Z,8.96
2022-09-20T07:45:16.050Z,8.97
2022-09-20T07:47:46.728Z,8.92
2022-09-20T07:50:14.746Z,8.84
2022-09-20T07:52:42.632Z,8.93
2022-09-20T07:55:10.823Z,8.90
2022-09-20T07:57:39.590Z,8.88
2022-09-20T08:00:10.032Z,8.92
2022-09-20T08:02:38.066Z,8.84
2022-09-20T08:05:08.067Z,8.98
2022-09-20T08:07:35.764Z,8.86
2022-09-20T08:10:03.786Z,8.89
2022-09-20T08:15:20.741Z,8.99
2022-09-20T08:17:49.293Z,9.02
2022-09-20T08:20:18.430Z,9.06
2022-09-20T08:23:00.950Z,9.08
2022-09-20T08:25:34.794Z,9.16
2022-09-20T08:28:03.518Z,9.15
2022-09-20T08:30:31.368Z,9.29
2022-09-20T08:32:59.561Z,9.43
2022-09-20T08:35:29.739Z,9.37
2022-09-20T08:39:57.167Z,9.60
2022-09-20T08:40:46.170Z,9.59
2022-09-20T08:43:14.446Z,9.68
2022-09-20T08:45:42.663Z,9.89
2022-09-20T08:48:17.294Z,9.81
2022-09-20T08:50:46.515Z,10.06
2022-09-20T08:53:20.971Z,10.12
2022-09-20T08:55:49.685Z,10.07
2022-09-20T08:58:19.155Z,10.12
2022-09-20T09:00:48.026Z,10.38
2022-09-20T09:03:17.912Z,10.73
2022-09-20T09:05:49.161Z,10.60
2022-09-20T09:08:19.744Z,10.59
2022-09-20T09:10:54.717Z,10.79
2022-09-20T09:13:27.868Z,10.83
2022-09-20T09:16:00.118Z,10.73
2022-09-20T09:18:40.106Z,10.84
2022-09-20T09:21:12.150Z,11.01
2022-09-20T09:23:42.509Z,10.79
2022-09-20T09:26:20.420Z,10.90
2022-09-20T09:28:48.602Z,11.27
2022-09-20T09:31:25.726Z,11.23
2022-09-20T09:33:53.693Z,11.53
2022-09-20T09:36:25.340Z,11.98
2022-09-20T09:39:17.555Z,12.46
2022-09-20T09:41:46.362Z,12.46
2022-09-20T09:44:23.660Z,12.85
2022-09-20T09:46:53.453Z,12.89
2022-09-20T09:49:23.492Z,12.66
2022-09-20T09:52:08.057Z,12.36
2022-09-20T09:54:38.149Z,12.29
2022-09-20T09:57:35.412Z,12.18
2022-09-20T10:00:18.009Z,11.92
2022-09-20T10:03:26.553Z,11.35
2022-09-20T10:06:08.539Z,11.41
2022-09-20T10:08:46.114Z,10.94
2022-09-20T10:11:36.310Z,10.73
2022-09-20T10:14:20.324Z,10.47
2022-09-20T10:17:05.933Z,10.20
2022-09-20T10:19:47.597Z,9.92
2022-09-20T10:22:21.517Z,9.93
2022-09-20T10:25:04.287Z,9.74
2022-09-20T10:27:48.308Z,9.75
2022-09-20T10:30:20.193Z,9.88
2022-09-20T10:33:00.419Z,9.93
2022-09-20T10:35:36.975Z,10.11
2022-09-20T10:38:26.198Z,10.06
2022-09-20T10:41:39.025Z,10.37
2022-09-20T10:44:13.802Z,11.07
2022-09-20T10:46:52.618Z,11.26
2022-09-20T10:49:29.041Z,11.41
2022-09-20T10:52:23.813Z,11.50
2022-09-20T10:55:18.734Z,12.28
2022-09-20T10:58:27.111Z,11.54
2022-09-20T11:01:02.280Z,12.11
2022-09-20T11:03:47.632Z,12.24
2022-09-20T11:06:21.250Z,12.77
2022-09-20T11:08:56.467Z,12.39
2022-09-20T11:11:31.051Z,13.05
2022-09-20T11:14:05.976Z,12.79
2022-09-20T11:16:40.694Z,13.11
2022-09-20T11:19:19.945Z,13.14
2022-09-20T11:21:50.728Z,12.97
2022-09-20T11:24:31.695Z,13.10
2022-09-20T11:27:05.349Z,12.68
2022-09-20T11:29:38.950Z,13.33
2022-09-20T11:32:14.004Z,13.25
2022-09-20T11:34:50.992Z,13.87
2022-09-20T11:37:20.372Z,13.47
2022-09-20T11:39:51.619Z,13.47
2022-09-20T11:42:23.083Z,13.47
2022-09-20T11:44:52.957Z,14.01
2022-09-20T11:47:50.064Z,14.11
2022-09-20T11:50:49.009Z,14.35
2022-09-20T11:53:32.136Z,14.78
2022-09-20T11:56:08.001Z,15.11
2022-09-20T11:58:48.200Z,14.76
2022-09-20T12:01:28.644Z,14.07
2022-09-20T12:04:20.693Z,15.15
2022-09-20T12:06:48.754Z,15.04
2022-09-20T12:09:26.746Z,14.88
2022-09-20T12:11:55.928Z,14.93
2022-09-20T12:14:26.037Z,13.80
2022-09-20T12:16:56.942Z,14.93
2022-09-20T12:19:39.407Z,15.06
2022-09-20T12:22:28.030Z,15.08
2022-09-20T12:25:35.521Z,15.22
2022-09-20T12:28:03.467Z,15.07
2022-09-20T12:30:33.881Z,15.36
2022-09-20T12:33:04.040Z,15.77
2022-09-20T12:36:16.485Z,15.56
2022-09-20T12:38:50.427Z,15.58
2022-09-20T12:41:28.369Z,15.08
2022-09-20T12:44:21.952Z,15.45
2022-09-20T12:46:56.265Z,15.85
2022-09-20T12:49:50.451Z,14.69
2022-09-20T12:52:41.768Z,15.43
2022-09-20T12:55:12.092Z,15.13
2022-09-20T12:57:40.853Z,14.54
2022-09-20T13:00:32.036Z,13.75
2022-09-20T13:03:01.861Z,13.42
2022-09-20T13:05:40.638Z,12.81
2022-09-20T13:08:16.993Z,12.56
2022-09-20T13:10:50.042Z,12.34
2022-09-20T13:13:30.042Z,12.19
2022-09-20T13:15:59.142Z,12.18
2022-09-20T13:18:29.414Z,11.97
2022-09-20T13:21:06.530Z,11.64
2022-09-20T13:23:47.173Z,11.48
2022-09-20T13:26:16.836Z,11.33
2022-09-20T13:28:51.462Z,11.11
2022-09-20T13:31:27.911Z,10.83
2022-09-20T13:33:56.625Z,10.85
2022-09-20T13:36:31.753Z,10.82
2022-09-20T13:39:00.118Z,10.79
2022-09-20T13:41:32.603Z,10.77
2022-09-20T13:44:01.313Z,10.83
2022-09-20T13:46:31.837Z,10.95
2022-09-20T13:49:13.700Z,10.80
2022-09-20T13:51:43.021Z,10.92
2022-09-20T13:54:28.540Z,10.88
2022-09-20T13:56:59.170Z,11.14
2022-09-20T13:59:34.101Z,11.06
2022-09-20T14:02:04.239Z,11.21
2022-09-20T14:04:32.593Z,11.31
2022-09-20T14:07:02.956Z,11.53
2022-09-20T14:09:34.892Z,11.64
2022-09-20T14:12:05.588Z,11.95
2022-09-20T14:14:35.718Z,12.28
2022-09-20T14:17:07.364Z,12.10
2022-09-20T14:19:41.869Z,11.71
2022-09-20T14:22:18.564Z,11.56
2022-09-20T14:24:59.444Z,11.34
2022-09-20T14:27:27.427Z,11.23
2022-09-20T14:29:56.257Z,11.06
2022-09-20T14:32:35.244Z,11.07
2022-09-20T14:35:07.467Z,11.37
2022-09-20T14:37:44.661Z,11.83
2022-09-20T14:40:21.412Z,11.37
2022-09-20T14:42:52.619Z,11.62
2022-09-20T14:45:27.042Z,11.32
2022-09-20T14:48:06.722Z,11.25
2022-09-20T14:50:40.681Z,11.03
2022-09-20T14:53:26.624Z,10.81
2022-09-20T14:56:10.308Z,10.88
2022-09-20T14:59:07.590Z,10.72
2022-09-20T15:01:38.945Z,10.55
2022-09-20T15:04:09.744Z,10.49
2022-09-20T15:06:40.023Z,10.49
2022-09-20T15:09:12.963Z,10.36
2022-09-20T15:11:41.674Z,10.52
2022-09-20T15:14:09.538Z,10.55
2022-09-20T15:16:37.511Z,10.50
2022-09-20T15:19:07.967Z,10.61
2022-09-20T15:21:36.274Z,10.58
2022-09-20T15:24:03.980Z,10.49
2022-09-20T15:26:34.119Z,10.44
2022-09-20T15:29:01.821Z,10.61
2022-09-20T15:31:29.679Z,10.69
2022-09-20T15:33:57.908Z,10.82
2022-09-20T15:36:31.718Z,10.64
2022-09-20T15:39:00.280Z,10.63
2022-09-20T15:41:31.246Z,10.70
2022-09-20T15:44:01.512Z,11.04
2022-09-20T15:46:29.789Z,11.13
2022-09-20T15:49:00.534Z,11.19
2022-09-20T15:51:30.356Z,11.19
2022-09-20T15:54:00.109Z,11.22
2022-09-20T15:56:30.452Z,11.11
2022-09-20T15:59:01.952Z,10.91
2022-09-20T16:01:32.937Z,10.98
2022-09-20T16:04:05.387Z,10.99
2022-09-20T16:06:34.041Z,10.81
2022-09-20T16:09:01.792Z,10.86
2022-09-20T16:11:29.858Z,10.88
2022-09-20T16:14:01.079Z,10.88
2022-09-20T16:16:35.026Z,10.86
2022-09-20T16:19:20.583Z,10.80
2022-09-20T16:21:55.035Z,10.74
2022-09-20T16:24:26.929Z,10.56
2022-09-20T16:26:55.187Z,10.65
2022-09-20T16:29:25.653Z,10.47
2022-09-20T16:31:55.302Z,10.29
2022-09-20T16:34:30.539Z,10.15
2022-09-20T16:37:01.748Z,10.27
2022-09-20T16:39:31.405Z,10.26
2022-09-20T16:42:05.018Z,10.22
2022-09-20T16:44:36.093Z,10.17
2022-09-20T16:47:07.914Z,10.14
2022-09-20T16:49:36.392Z,10.15
2022-09-20T16:52:05.565Z,10.10
2022-09-20T16:54:34.082Z,10.10
2022-09-20T16:57:02.109Z,10.15
2022-09-20T16:59:29.872Z,10.05
2022-09-20T17:01:59.275Z,10.01
2022-09-20T17:04:27.252Z,9.67
2022-09-20T17:06:55.606Z,9.62
2022-09-20T17:09:23.725Z,9.53
2022-09-20T17:11:51.931Z,9.44
2022-09-20T17:14:21.853Z,9.40
2022-09-20T17:16:50.321Z,9.27
2022-09-20T17:19:21.125Z,9.39
2022-09-20T17:21:51.676Z,9.33
2022-09-20T17:24:21.221Z,9.16
2022-09-20T17:26:50.662Z,9.15
2022-09-20T17:29:19.935Z,9.18
2022-09-20T17:31:54.585Z,9.21
2022-09-20T17:34:25.626Z,9.04
2022-09-20T17:36:54.885Z,9.12
2022-09-20T17:39:22.605Z,9.21
2022-09-20T17:41:51.589Z,9.12
2022-09-20T17:44:20.056Z,9.22
2022-09-20T17:46:50.564Z,9.18
2022-09-20T17:49:20.311Z,9.13
2022-09-20T17:51:51.150Z,9.10
2022-09-20T17:54:20.154Z,9.06
2022-09-20T17:56:50.242Z,9.04
2022-09-20T17:59:20.651Z,9.06
2022-09-20T18:01:50.581Z,9.03
2022-09-20T18:04:20.780Z,9.02
2022-09-20T18:06:52.165Z,8.94
2022-09-20T18:09:21.601Z,8.93
2022-09-20T18:11:51.106Z,8.98
2022-09-20T18:14:21.003Z,8.88
2022-09-20T18:16:48.800Z,8.97
2022-09-20T18:19:16.867Z,8.91
2022-09-20T18:21:44.854Z,8.88
2022-09-20T18:24:14.061Z,8.98
2022-09-20T18:26:42.365Z,8.99
2022-09-20T18:29:12.178Z,9.02
2022-09-20T18:31:43.162Z,9.03
2022-09-20T18:34:13.476Z,9.04
2022-09-20T18:36:41.233Z,9.08
2022-09-20T18:39:09.331Z,9.08
2022-09-20T18:41:39.872Z,9.06
2022-09-20T18:44:08.593Z,9.02
2022-09-20T18:46:38.171Z,9.02
2022-09-20T18:49:09.234Z,9.05
2022-09-20T18:51:40.190Z,9.05
2022-09-20T18:54:10.069Z,8.96
2022-09-20T18:56:41.317Z,8.98
2022-09-20T18:59:15.917Z,8.95
2022-09-20T19:01:59.454Z,8.93
2022-09-20T19:04:47.073Z,8.94
2022-09-20T19:07:21.488Z,8.86
2022-09-20T19:09:57.824Z,8.84
2022-09-20T19:12:36.757Z,8.86
2022-09-20T19:15:19.873Z,8.86
2022-09-20T19:18:03.123Z,8.84
2022-09-20T19:20:36.229Z,8.77
2022-09-20T19:23:14.909Z,8.67
2022-09-20T19:25:46.405Z,8.67
2022-09-20T19:28:16.926Z,8.53
2022-09-20T19:30:48.100Z,8.71
2022-09-20T19:33:18.372Z,8.59
2022-09-20T19:35:50.524Z,8.74
2022-09-20T19:38:35.235Z,8.71
2022-09-20T19:41:13.990Z,8.72
2022-09-20T19:44:05.237Z,8.71
2022-09-20T19:46:46.836Z,8.65
2022-09-20T19:49:16.906Z,8.67
2022-09-20T19:51:45.748Z,8.66
2022-09-20T19:54:15.823Z,8.63
2022-09-20T19:56:51.097Z,8.62
2022-09-20T19:59:21.318Z,8.43
2022-09-20T20:01:49.794Z,8.57
2022-09-20T20:04:18.299Z,8.60
2022-09-20T20:06:55.704Z,8.56
2022-09-20T20:09:32.133Z,8.43
2022-09-20T20:12:06.049Z,8.44
2022-09-20T20:14:45.714Z,8.51
2022-09-20T20:17:26.222Z,8.62
2022-09-20T20:20:05.337Z,8.51
2022-09-20T20:22:47.179Z,8.41
2022-09-20T20:25:26.686Z,8.43
2022-09-20T20:27:54.833Z,8.37
2022-09-20T20:30:24.289Z,8.42
2022-09-20T20:32:57.901Z,8.36
2022-09-20T20:35:26.692Z,8.30
2022-09-20T20:37:54.510Z,8.30
2022-09-20T20:40:22.477Z,8.22
2022-09-20T20:43:02.153Z,8.22
2022-09-20T20:45:31.475Z,8.08
2022-09-20T20:48:00.019Z,8.02
2022-09-20T20:50:29.387Z,8.09
2022-09-20T20:52:57.540Z,8.10
2022-09-20T20:55:26.071Z,8.01
2022-09-20T20:57:57.744Z,8.09
2022-09-20T21:00:27.429Z,8.12
2022-09-20T21:02:59.877Z,8.18
2022-09-20T21:05:28.549Z,8.23
2022-09-20T21:07:57.893Z,8.25
2022-09-20T21:10:25.970Z,8.18
2022-09-20T21:12:55.442Z,8.16
2022-09-20T21:15:23.505Z,8.19
2022-09-20T21:17:52.864Z,8.23
2022-09-20T21:20:22.443Z,8.15
2022-09-20T21:22:50.673Z,7.89
2022-09-20T21:25:18.824Z,7.98
2022-09-20T21:27:46.540Z,8.08
2022-09-20T21:30:15.196Z,8.06
2022-09-20T21:32:43.135Z,8.07
2022-09-20T21:35:11.414Z,8.06
2022-09-20T21:37:41.195Z,8.07
2022-09-20T21:40:10.489Z,8.13
2022-09-20T21:42:38.196Z,8.08
2022-09-20T21:45:11.002Z,7.99
2022-09-20T21:47:38.793Z,8.01
2022-09-20T21:50:07.473Z,7.96
2022-09-20T21:52:35.587Z,7.93
2022-09-20T21:55:05.706Z,7.84
2022-09-20T21:57:33.539Z,7.72
2022-09-20T22:00:02.005Z,7.85
2022-09-20T22:02:30.602Z,7.89
2022-09-20T22:04:58.408Z,7.91
2022-09-20T22:07:26.355Z,7.92
2022-09-20T22:09:54.230Z,7.95
2022-09-20T22:12:24.171Z,7.85
2022-09-20T22:14:52.162Z,7.84
2022-09-20T22:17:20.069Z,7.90
2022-09-20T22:19:47.784Z,7.92
2022-09-20T22:22:15.929Z,8.04
2022-09-20T22:24:43.710Z,8.00
2022-09-20T22:27:11.452Z,8.01
2022-09-20T22:29:40.903Z,8.01
2022-09-20T22:32:08.932Z,7.94
2022-09-20T22:34:36.786Z,8.03
2022-09-20T22:37:04.818Z,8.12
2022-09-20T22:39:32.939Z,7.99
2022-09-20T22:42:00.703Z,8.04
2022-09-20T22:44:28.885Z,8.13
2022-09-20T22:46:58.195Z,7.98
2022-09-20T22:49:26.015Z,8.06
2022-09-20T22:51:53.904Z,8.08
2022-09-20T22:54:21.934Z,8.04
2022-09-20T22:56:49.673Z,8.03
2022-09-20T22:59:17.557Z,8.02
2022-09-20T23:01:47.120Z,8.02
2022-09-20T23:04:18.618Z,8.04
2022-09-20T23:06:49.140Z,7.93
2022-09-20T23:09:18.872Z,7.89
2022-09-20T23:11:47.512Z,7.86
2022-09-20T23:14:17.005Z,7.89
2022-09-20T23:16:45.618Z,7.85
2022-09-20T23:19:14.320Z,7.79
2022-09-20T23:21:44.421Z,7.87
2022-09-20T23:24:15.096Z,7.84
2022-09-20T23:26:44.305Z,7.80
2022-09-20T23:29:14.086Z,7.85
2022-09-20T23:31:46.165Z,7.80
2022-09-20T23:34:16.659Z,7.83
2022-09-20T23:36:46.567Z,7.71
2022-09-20T23:39:14.833Z,7.75
2022-09-20T23:41:48.341Z,7.69
2022-09-20T23:44:18.809Z,7.73
2022-09-20T23:46:46.840Z,7.65
2022-09-20T23:49:14.580Z,7.75
2022-09-20T23:51:42.297Z,7.66
2022-09-20T23:54:11.708Z,7.61
2022-09-20T23:56:40.135Z,7.65
2022-09-20T23:59:07.854Z,7.63
